sensor_id;sensor_type;location;lat;lon;timestamp;P1;durP1;ratioP1;P2;durP2;ratioP2
11191;SDS011;5652;48.406;10.820;2022-08-21T00:00:00;4.80;;;3.90;;
11191;SDS011;5652;48.406;10.820;2022-08-21T00:02:27;6.53;;;3.90;;
11191;SDS011;5652;48.406;10.820;2022-08-21T00:04:56;6.07;;;3.95;;
11191;SDS011;5652;48.406;10.820;2022-08-21T00:07:24;8.30;;;3.80;;
11191;SDS011;5652;48.406;10.820;2022-08-21T00:09:51;6.55;;;3.60;;
11191;SDS011;5652;48.406;10.820;2022-08-21T00:12:19;4.65;;;3.58;;
11191;SDS011;5652;48.406;10.820;2022-08-21T00:14:46;4.40;;;3.20;;
11191;SDS011;5652;48.406;10.820;2022-08-21T00:17:14;5.57;;;3.53;;
11191;SDS011;5652;48.406;10.820;2022-08-21T00:19:42;4.53;;;3.40;;
11191;SDS011;5652;48.406;10.820;2022-08-21T00:22:10;11.07;;;4.25;;
11191;SDS011;5652;48.406;10.820;2022-08-21T00:24:38;6.78;;;3.70;;
11191;SDS011;5652;48.406;10.820;2022-08-21T00:27:05;7.40;;;4.30;;
11191;SDS011;5652;48.406;10.820;2022-08-21T00:29:32;6.00;;;3.75;;
11191;SDS011;5652;48.406;10.820;2022-08-21T00:31:59;6.80;;;4.18;;
11191;SDS011;5652;48.406;10.820;2022-08-21T00:34:26;6.75;;;4.10;;
11191;SDS011;5652;48.406;10.820;2022-08-21T00:36:53;6.38;;;4.25;;
11191;SDS011;5652;48.406;10.820;2022-08-21T00:39:22;7.05;;;4.05;;
11191;SDS011;5652;48.406;10.820;2022-08-21T00:41:49;5.47;;;4.13;;
11191;SDS011;5652;48.406;10.820;2022-08-21T00:44:17;6.53;;;4.07;;
11191;SDS011;5652;48.406;10.820;2022-08-21T00:46:44;5.93;;;4.07;;
11191;SDS011;5652;48.406;10.820;2022-08-21T00:49:12;6.28;;;4.00;;
11191;SDS011;5652;48.406;10.820;2022-08-21T00:51:40;5.93;;;3.65;;
11191;SDS011;5652;48.406;10.820;2022-08-21T00:54:09;5.15;;;3.67;;
11191;SDS011;5652;48.406;10.820;2022-08-21T00:56:38;5.38;;;4.00;;
11191;SDS011;5652;48.406;10.820;2022-08-21T00:59:06;6.70;;;4.10;;
11191;SDS011;5652;48.406;10.820;2022-08-21T01:01:34;5.75;;;3.42;;
11191;SDS011;5652;48.406;10.820;2022-08-21T01:04:02;5.43;;;3.87;;
11191;SDS011;5652;48.406;10.820;2022-08-21T01:06:29;7.18;;;4.32;;
11191;SDS011;5652;48.406;10.820;2022-08-21T01:08:57;6.07;;;3.88;;
11191;SDS011;5652;48.406;10.820;2022-08-21T01:11:24;7.18;;;4.30;;
11191;SDS011;5652;48.406;10.820;2022-08-21T01:13:53;6.60;;;4.00;;
11191;SDS011;5652;48.406;10.820;2022-08-21T01:16:20;9.07;;;4.15;;
11191;SDS011;5652;48.406;10.820;2022-08-21T01:18:48;5.88;;;4.10;;
11191;SDS011;5652;48.406;10.820;2022-08-21T01:21:18;5.30;;;4.00;;
11191;SDS011;5652;48.406;10.820;2022-08-21T01:23:46;6.25;;;3.88;;
11191;SDS011;5652;48.406;10.820;2022-08-21T01:26:14;5.68;;;3.50;;
11191;SDS011;5652;48.406;10.820;2022-08-21T01:28:44;4.93;;;3.70;;
11191;SDS011;5652;48.406;10.820;2022-08-21T01:31:12;6.97;;;3.92;;
11191;SDS011;5652;48.406;10.820;2022-08-21T01:33:41;5.78;;;4.05;;
11191;SDS011;5652;48.406;10.820;2022-08-21T01:36:08;5.28;;;3.63;;
11191;SDS011;5652;48.406;10.820;2022-08-21T01:38:36;5.45;;;3.58;;
11191;SDS011;5652;48.406;10.820;2022-08-21T01:41:04;8.05;;;3.90;;
11191;SDS011;5652;48.406;10.820;2022-08-21T01:43:31;5.63;;;3.95;;
11191;SDS011;5652;48.406;10.820;2022-08-21T01:45:59;6.25;;;4.07;;
11191;SDS011;5652;48.406;10.820;2022-08-21T01:48:26;6.32;;;3.72;;
11191;SDS011;5652;48.406;10.820;2022-08-21T01:50:54;6.18;;;4.10;;
11191;SDS011;5652;48.406;10.820;2022-08-21T01:53:21;5.03;;;3.70;;
11191;SDS011;5652;48.406;10.820;2022-08-21T01:55:50;5.85;;;4.15;;
11191;SDS011;5652;48.406;10.820;2022-08-21T01:58:17;5.10;;;3.72;;
11191;SDS011;5652;48.406;10.820;2022-08-21T02:00:44;7.10;;;3.40;;
11191;SDS011;5652;48.406;10.820;2022-08-21T02:03:11;5.38;;;3.55;;
11191;SDS011;5652;48.406;10.820;2022-08-21T02:05:39;5.22;;;3.72;;
11191;SDS011;5652;48.406;10.820;2022-08-21T02:08:06;8.82;;;3.85;;
11191;SDS011;5652;48.406;10.820;2022-08-21T02:10:33;5.43;;;3.70;;
11191;SDS011;5652;48.406;10.820;2022-08-21T02:13:02;5.53;;;3.67;;
11191;SDS011;5652;48.406;10.820;2022-08-21T02:15:30;5.68;;;3.50;;
11191;SDS011;5652;48.406;10.820;2022-08-21T02:17:58;5.03;;;3.70;;
11191;SDS011;5652;48.406;10.820;2022-08-21T02:20:26;6.90;;;3.75;;
11191;SDS011;5652;48.406;10.820;2022-08-21T02:22:54;6.78;;;3.80;;
11191;SDS011;5652;48.406;10.820;2022-08-21T02:25:23;5.05;;;3.50;;
11191;SDS011;5652;48.406;10.820;2022-08-21T02:27:50;6.93;;;3.87;;
11191;SDS011;5652;48.406;10.820;2022-08-21T02:30:20;6.07;;;3.80;;
11191;SDS011;5652;48.406;10.820;2022-08-21T02:32:47;4.90;;;3.55;;
11191;SDS011;5652;48.406;10.820;2022-08-21T02:35:15;7.20;;;3.88;;
11191;SDS011;5652;48.406;10.820;2022-08-21T02:37:44;6.65;;;3.85;;
11191;SDS011;5652;48.406;10.820;2022-08-21T02:40:12;9.40;;;4.15;;
11191;SDS011;5652;48.406;10.820;2022-08-21T02:42:40;5.00;;;4.05;;
11191;SDS011;5652;48.406;10.820;2022-08-21T02:45:08;4.50;;;3.67;;
11191;SDS011;5652;48.406;10.820;2022-08-21T02:47:37;8.05;;;3.88;;
11191;SDS011;5652;48.406;10.820;2022-08-21T02:50:05;6.47;;;3.80;;
11191;SDS011;5652;48.406;10.820;2022-08-21T02:52:33;5.40;;;3.97;;
11191;SDS011;5652;48.406;10.820;2022-08-21T02:55:01;4.85;;;3.80;;
11191;SDS011;5652;48.406;10.820;2022-08-21T02:57:28;5.30;;;3.80;;
11191;SDS011;5652;48.406;10.820;2022-08-21T02:59:57;7.97;;;4.05;;
11191;SDS011;5652;48.406;10.820;2022-08-21T03:02:24;5.30;;;3.60;;
11191;SDS011;5652;48.406;10.820;2022-08-21T03:04:53;5.65;;;4.00;;
11191;SDS011;5652;48.406;10.820;2022-08-21T03:07:20;6.18;;;4.00;;
11191;SDS011;5652;48.406;10.820;2022-08-21T03:09:47;5.47;;;4.18;;
11191;SDS011;5652;48.406;10.820;2022-08-21T03:12:15;5.03;;;3.50;;
11191;SDS011;5652;48.406;10.820;2022-08-21T03:14:42;6.38;;;3.53;;
11191;SDS011;5652;48.406;10.820;2022-08-21T03:17:09;5.68;;;3.92;;
11191;SDS011;5652;48.406;10.820;2022-08-21T03:19:36;5.28;;;3.65;;
11191;SDS011;5652;48.406;10.820;2022-08-21T03:22:05;7.10;;;3.78;;
11191;SDS011;5652;48.406;10.820;2022-08-21T03:24:32;6.55;;;3.67;;
11191;SDS011;5652;48.406;10.820;2022-08-21T03:26:59;5.60;;;3.60;;
11191;SDS011;5652;48.406;10.820;2022-08-21T03:29:27;6.25;;;3.65;;
11191;SDS011;5652;48.406;10.820;2022-08-21T03:31:54;4.38;;;3.30;;
11191;SDS011;5652;48.406;10.820;2022-08-21T03:34:21;5.63;;;3.75;;
11191;SDS011;5652;48.406;10.820;2022-08-21T03:36:48;6.30;;;3.77;;
11191;SDS011;5652;48.406;10.820;2022-08-21T03:39:17;5.88;;;4.38;;
11191;SDS011;5652;48.406;10.820;2022-08-21T03:41:44;6.63;;;4.18;;
11191;SDS011;5652;48.406;10.820;2022-08-21T03:44:12;12.07;;;4.20;;
11191;SDS011;5652;48.406;10.820;2022-08-21T03:46:39;5.35;;;4.00;;
11191;SDS011;5652;48.406;10.820;2022-08-21T03:49:06;8.95;;;4.03;;
11191;SDS011;5652;48.406;10.820;2022-08-21T03:51:33;6.72;;;3.97;;
11191;SDS011;5652;48.406;10.820;2022-08-21T03:54:01;5.80;;;3.83;;
11191;SDS011;5652;48.406;10.820;2022-08-21T03:56:30;8.20;;;4.00;;
11191;SDS011;5652;48.406;10.820;2022-08-21T03:58:57;6.13;;;3.92;;
11191;SDS011;5652;48.406;10.820;2022-08-21T04:01:24;5.63;;;4.03;;
11191;SDS011;5652;48.406;10.820;2022-08-21T04:03:51;5.55;;;3.90;;
11191;SDS011;5652;48.406;10.820;2022-08-21T04:06:19;6.77;;;4.17;;
11191;SDS011;5652;48.406;10.820;2022-08-21T04:08:46;6.38;;;4.05;;
11191;SDS011;5652;48.406;10.820;2022-08-21T04:11:13;6.05;;;4.10;;
11191;SDS011;5652;48.406;10.820;2022-08-21T04:13:42;6.07;;;3.83;;
11191;SDS011;5652;48.406;10.820;2022-08-21T04:16:09;11.60;;;4.45;;
11191;SDS011;5652;48.406;10.820;2022-08-21T04:18:37;6.67;;;4.23;;
11191;SDS011;5652;48.406;10.820;2022-08-21T04:21:04;6.30;;;3.55;;
11191;SDS011;5652;48.406;10.820;2022-08-21T04:23:32;6.53;;;3.88;;
11191;SDS011;5652;48.406;10.820;2022-08-21T04:25:59;6.97;;;3.80;;
11191;SDS011;5652;48.406;10.820;2022-08-21T04:28:26;9.13;;;4.25;;
11191;SDS011;5652;48.406;10.820;2022-08-21T04:30:56;5.53;;;3.90;;
11191;SDS011;5652;48.406;10.820;2022-08-21T04:33:23;6.20;;;4.18;;
11191;SDS011;5652;48.406;10.820;2022-08-21T04:35:50;9.18;;;4.28;;
11191;SDS011;5652;48.406;10.820;2022-08-21T04:38:18;5.60;;;3.80;;
11191;SDS011;5652;48.406;10.820;2022-08-21T04:40:45;7.38;;;4.30;;
11191;SDS011;5652;48.406;10.820;2022-08-21T04:43:13;8.27;;;4.50;;
11191;SDS011;5652;48.406;10.820;2022-08-21T04:45:41;7.47;;;4.67;;
11191;SDS011;5652;48.406;10.820;2022-08-21T04:48:11;6.75;;;4.30;;
11191;SDS011;5652;48.406;10.820;2022-08-21T04:50:39;7.97;;;4.68;;
11191;SDS011;5652;48.406;10.820;2022-08-21T04:53:08;6.95;;;4.40;;
11191;SDS011;5652;48.406;10.820;2022-08-21T04:55:36;5.33;;;3.70;;
11191;SDS011;5652;48.406;10.820;2022-08-21T04:58:06;4.78;;;3.78;;
11191;SDS011;5652;48.406;10.820;2022-08-21T05:00:34;5.35;;;4.20;;
11191;SDS011;5652;48.406;10.820;2022-08-21T05:03:01;7.88;;;4.38;;
11191;SDS011;5652;48.406;10.820;2022-08-21T05:05:31;5.00;;;3.60;;
11191;SDS011;5652;48.406;10.820;2022-08-21T05:07:59;6.65;;;3.90;;
11191;SDS011;5652;48.406;10.820;2022-08-21T05:10:27;6.38;;;3.92;;
11191;SDS011;5652;48.406;10.820;2022-08-21T05:12:56;6.88;;;4.10;;
11191;SDS011;5652;48.406;10.820;2022-08-21T05:15:23;6.60;;;4.55;;
11191;SDS011;5652;48.406;10.820;2022-08-21T05:17:50;7.30;;;4.70;;
11191;SDS011;5652;48.406;10.820;2022-08-21T05:20:18;9.27;;;4.35;;
11191;SDS011;5652;48.406;10.820;2022-08-21T05:22:47;6.40;;;4.43;;
11191;SDS011;5652;48.406;10.820;2022-08-21T05:25:14;5.07;;;3.90;;
11191;SDS011;5652;48.406;10.820;2022-08-21T05:27:41;7.80;;;4.15;;
11191;SDS011;5652;48.406;10.820;2022-08-21T05:30:09;5.82;;;4.00;;
11191;SDS011;5652;48.406;10.820;2022-08-21T05:32:36;8.73;;;4.23;;
11191;SDS011;5652;48.406;10.820;2022-08-21T05:35:05;8.30;;;4.20;;
11191;SDS011;5652;48.406;10.820;2022-08-21T05:37:32;5.80;;;4.10;;
11191;SDS011;5652;48.406;10.820;2022-08-21T05:40:02;5.20;;;3.80;;
11191;SDS011;5652;48.406;10.820;2022-08-21T05:42:29;5.60;;;3.92;;
11191;SDS011;5652;48.406;10.820;2022-08-21T05:44:57;6.53;;;3.67;;
11191;SDS011;5652;48.406;10.820;2022-08-21T05:47:24;5.68;;;3.63;;
11191;SDS011;5652;48.406;10.820;2022-08-21T05:49:52;5.03;;;3.63;;
11191;SDS011;5652;48.406;10.820;2022-08-21T05:52:19;6.13;;;3.97;;
11191;SDS011;5652;48.406;10.820;2022-08-21T05:54:47;5.50;;;3.88;;
11191;SDS011;5652;48.406;10.820;2022-08-21T05:57:17;6.05;;;3.92;;
11191;SDS011;5652;48.406;10.820;2022-08-21T05:59:44;6.50;;;3.53;;
11191;SDS011;5652;48.406;10.820;2022-08-21T06:02:11;4.45;;;3.33;;
11191;SDS011;5652;48.406;10.820;2022-08-21T06:04:38;5.45;;;3.30;;
11191;SDS011;5652;48.406;10.820;2022-08-21T06:07:06;4.57;;;3.03;;
11191;SDS011;5652;48.406;10.820;2022-08-21T06:09:33;5.17;;;3.30;;
11191;SDS011;5652;48.406;10.820;2022-08-21T06:12:03;4.90;;;3.60;;
11191;SDS011;5652;48.406;10.820;2022-08-21T06:14:32;4.03;;;2.90;;
11191;SDS011;5652;48.406;10.820;2022-08-21T06:17:01;3.20;;;2.47;;
11191;SDS011;5652;48.406;10.820;2022-08-21T06:19:29;3.20;;;2.30;;
11191;SDS011;5652;48.406;10.820;2022-08-21T06:21:56;4.43;;;2.17;;
11191;SDS011;5652;48.406;10.820;2022-08-21T06:24:23;2.85;;;2.08;;
11191;SDS011;5652;48.406;10.820;2022-08-21T06:26:51;2.50;;;2.20;;
11191;SDS011;5652;48.406;10.820;2022-08-21T06:29:18;2.67;;;1.83;;
11191;SDS011;5652;48.406;10.820;2022-08-21T06:31:47;3.00;;;1.90;;
11191;SDS011;5652;48.406;10.820;2022-08-21T06:34:15;2.30;;;1.88;;
11191;SDS011;5652;48.406;10.820;2022-08-21T06:36:42;3.00;;;1.80;;
11191;SDS011;5652;48.406;10.820;2022-08-21T06:39:09;2.20;;;1.77;;
11191;SDS011;5652;48.406;10.820;2022-08-21T06:41:38;2.10;;;1.70;;
11191;SDS011;5652;48.406;10.820;2022-08-21T06:44:05;3.23;;;1.80;;
11191;SDS011;5652;48.406;10.820;2022-08-21T06:46:32;3.08;;;2.00;;
11191;SDS011;5652;48.406;10.820;2022-08-21T06:49:08;2.55;;;1.83;;
11191;SDS011;5652;48.406;10.820;2022-08-21T06:51:35;3.15;;;1.90;;
11191;SDS011;5652;48.406;10.820;2022-08-21T06:54:02;2.97;;;1.90;;
11191;SDS011;5652;48.406;10.820;2022-08-21T06:56:29;2.50;;;1.87;;
11191;SDS011;5652;48.406;10.820;2022-08-21T06:58:58;3.60;;;1.83;;
11191;SDS011;5652;48.406;10.820;2022-08-21T07:01:25;4.22;;;2.10;;
11191;SDS011;5652;48.406;10.820;2022-08-21T07:03:53;2.90;;;1.77;;
11191;SDS011;5652;48.406;10.820;2022-08-21T07:06:21;3.33;;;1.73;;
11191;SDS011;5652;48.406;10.820;2022-08-21T07:08:49;3.00;;;2.25;;
11191;SDS011;5652;48.406;10.820;2022-08-21T07:11:19;3.38;;;2.15;;
11191;SDS011;5652;48.406;10.820;2022-08-21T07:13:52;2.97;;;1.95;;
11191;SDS011;5652;48.406;10.820;2022-08-21T07:16:21;4.03;;;2.00;;
11191;SDS011;5652;48.406;10.820;2022-08-21T07:18:48;4.22;;;2.13;;
11191;SDS011;5652;48.406;10.820;2022-08-21T07:21:16;2.60;;;1.90;;
11191;SDS011;5652;48.406;10.820;2022-08-21T07:23:47;2.78;;;2.00;;
11191;SDS011;5652;48.406;10.820;2022-08-21T07:26:20;3.17;;;1.90;;
11191;SDS011;5652;48.406;10.820;2022-08-21T07:28:48;2.28;;;2.08;;
11191;SDS011;5652;48.406;10.820;2022-08-21T07:31:19;2.20;;;1.80;;
11191;SDS011;5652;48.406;10.820;2022-08-21T07:33:52;2.72;;;2.00;;
11191;SDS011;5652;48.406;10.820;2022-08-21T07:36:33;3.33;;;2.30;;
11191;SDS011;5652;48.406;10.820;2022-08-21T07:39:04;2.92;;;1.90;;
11191;SDS011;5652;48.406;10.820;2022-08-21T07:41:33;2.95;;;2.05;;
11191;SDS011;5652;48.406;10.820;2022-08-21T07:44:04;3.13;;;2.20;;
11191;SDS011;5652;48.406;10.820;2022-08-21T07:46:38;3.20;;;2.10;;
11191;SDS011;5652;48.406;10.820;2022-08-21T07:49:05;2.60;;;2.05;;
11191;SDS011;5652;48.406;10.820;2022-08-21T07:51:35;3.95;;;2.00;;
11191;SDS011;5652;48.406;10.820;2022-08-21T07:54:12;2.78;;;2.00;;
11191;SDS011;5652;48.406;10.820;2022-08-21T07:56:42;3.30;;;1.98;;
11191;SDS011;5652;48.406;10.820;2022-08-21T07:59:17;2.97;;;2.10;;
11191;SDS011;5652;48.406;10.820;2022-08-21T08:01:52;3.05;;;2.00;;
11191;SDS011;5652;48.406;10.820;2022-08-21T08:04:34;4.78;;;2.28;;
11191;SDS011;5652;48.406;10.820;2022-08-21T08:07:27;3.58;;;2.80;;
11191;SDS011;5652;48.406;10.820;2022-08-21T08:10:18;3.22;;;2.40;;
11191;SDS011;5652;48.406;10.820;2022-08-21T08:12:53;2.63;;;2.30;;
11191;SDS011;5652;48.406;10.820;2022-08-21T08:15:21;2.97;;;2.45;;
11191;SDS011;5652;48.406;10.820;2022-08-21T08:17:56;4.97;;;2.77;;
11191;SDS011;5652;48.406;10.820;2022-08-21T08:20:36;3.33;;;2.30;;
11191;SDS011;5652;48.406;10.820;2022-08-21T08:23:06;4.07;;;2.67;;
11191;SDS011;5652;48.406;10.820;2022-08-21T08:25:41;2.72;;;2.30;;
11191;SDS011;5652;48.406;10.820;2022-08-21T08:28:09;3.20;;;2.23;;
11191;SDS011;5652;48.406;10.820;2022-08-21T08:30:37;4.20;;;2.30;;
11191;SDS011;5652;48.406;10.820;2022-08-21T08:33:04;5.13;;;2.58;;
11191;SDS011;5652;48.406;10.820;2022-08-21T08:35:31;3.20;;;2.40;;
11191;SDS011;5652;48.406;10.820;2022-08-21T08:37:59;3.40;;;2.70;;
11191;SDS011;5652;48.406;10.820;2022-08-21T08:40:28;3.05;;;2.60;;
11191;SDS011;5652;48.406;10.820;2022-08-21T08:42:59;3.60;;;2.67;;
11191;SDS011;5652;48.406;10.820;2022-08-21T08:45:26;3.60;;;2.50;;
11191;SDS011;5652;48.406;10.820;2022-08-21T08:47:59;4.07;;;2.80;;
11191;SDS011;5652;48.406;10.820;2022-08-21T08:50:29;3.40;;;2.58;;
11191;SDS011;5652;48.406;10.820;2022-08-21T08:53:02;3.20;;;2.60;;
11191;SDS011;5652;48.406;10.820;2022-08-21T08:55:32;3.30;;;2.50;;
11191;SDS011;5652;48.406;10.820;2022-08-21T08:58:19;3.33;;;2.50;;
11191;SDS011;5652;48.406;10.820;2022-08-21T09:01:15;4.43;;;2.63;;
11191;SDS011;5652;48.406;10.820;2022-08-21T09:03:50;3.72;;;2.40;;
11191;SDS011;5652;48.406;10.820;2022-08-21T09:06:28;3.17;;;2.42;;
11191;SDS011;5652;48.406;10.820;2022-08-21T09:09:09;3.00;;;2.70;;
11191;SDS011;5652;48.406;10.820;2022-08-21T09:11:57;3.80;;;2.92;;
11191;SDS011;5652;48.406;10.820;2022-08-21T09:14:44;4.10;;;2.80;;
11191;SDS011;5652;48.406;10.820;2022-08-21T09:17:19;3.28;;;2.60;;
11191;SDS011;5652;48.406;10.820;2022-08-21T09:19:54;3.42;;;3.03;;
11191;SDS011;5652;48.406;10.820;2022-08-21T09:22:26;4.13;;;2.80;;
11191;SDS011;5652;48.406;10.820;2022-08-21T09:24:59;4.93;;;2.90;;
11191;SDS011;5652;48.406;10.820;2022-08-21T09:27:27;4.93;;;3.00;;
11191;SDS011;5652;48.406;10.820;2022-08-21T09:29:57;3.88;;;2.83;;
11191;SDS011;5652;48.406;10.820;2022-08-21T09:32:24;3.95;;;2.90;;
11191;SDS011;5652;48.406;10.820;2022-08-21T09:34:59;3.13;;;2.70;;
11191;SDS011;5652;48.406;10.820;2022-08-21T09:37:27;5.22;;;2.70;;
11191;SDS011;5652;48.406;10.820;2022-08-21T09:39:55;5.22;;;3.08;;
11191;SDS011;5652;48.406;10.820;2022-08-21T09:42:24;2.75;;;2.50;;
11191;SDS011;5652;48.406;10.820;2022-08-21T09:45:05;3.00;;;2.63;;
11191;SDS011;5652;48.406;10.820;2022-08-21T09:47:33;5.93;;;3.03;;
11191;SDS011;5652;48.406;10.820;2022-08-21T09:50:07;3.43;;;3.00;;
11191;SDS011;5652;48.406;10.820;2022-08-21T09:52:41;4.78;;;2.67;;
11191;SDS011;5652;48.406;10.820;2022-08-21T09:55:13;4.35;;;2.90;;
11191;SDS011;5652;48.406;10.820;2022-08-21T09:58:02;5.20;;;3.00;;
11191;SDS011;5652;48.406;10.820;2022-08-21T10:00:30;7.30;;;2.80;;
11191;SDS011;5652;48.406;10.820;2022-08-21T10:03:08;3.60;;;2.63;;
11191;SDS011;5652;48.406;10.820;2022-08-21T10:05:36;3.33;;;2.47;;
11191;SDS011;5652;48.406;10.820;2022-08-21T10:08:03;4.18;;;2.70;;
11191;SDS011;5652;48.406;10.820;2022-08-21T10:10:32;4.20;;;2.53;;
11191;SDS011;5652;48.406;10.820;2022-08-21T10:13:03;4.70;;;3.00;;
11191;SDS011;5652;48.406;10.820;2022-08-21T10:15:47;3.67;;;2.58;;
11191;SDS011;5652;48.406;10.820;2022-08-21T10:18:20;4.18;;;2.85;;
11191;SDS011;5652;48.406;10.820;2022-08-21T10:20:50;3.60;;;2.60;;
11191;SDS011;5652;48.406;10.820;2022-08-21T10:23:32;3.97;;;2.50;;
11191;SDS011;5652;48.406;10.820;2022-08-21T10:26:02;4.20;;;2.60;;
11191;SDS011;5652;48.406;10.820;2022-08-21T10:28:32;4.13;;;2.70;;
11191;SDS011;5652;48.406;10.820;2022-08-21T10:31:06;4.15;;;2.60;;
11191;SDS011;5652;48.406;10.820;2022-08-21T10:33:38;4.43;;;2.60;;
11191;SDS011;5652;48.406;10.820;2022-08-21T10:36:13;3.70;;;2.50;;
11191;SDS011;5652;48.406;10.820;2022-08-21T10:38:52;3.22;;;2.42;;
11191;SDS011;5652;48.406;10.820;2022-08-21T10:41:23;4.40;;;2.75;;
11191;SDS011;5652;48.406;10.820;2022-08-21T10:43:55;4.18;;;2.72;;
11191;SDS011;5652;48.406;10.820;2022-08-21T10:46:36;4.03;;;2.80;;
11191;SDS011;5652;48.406;10.820;2022-08-21T10:49:07;3.50;;;2.35;;
11191;SDS011;5652;48.406;10.820;2022-08-21T10:51:39;4.20;;;2.40;;
11191;SDS011;5652;48.406;10.820;2022-08-21T10:54:09;4.15;;;2.47;;
11191;SDS011;5652;48.406;10.820;2022-08-21T10:56:40;5.30;;;2.63;;
11191;SDS011;5652;48.406;10.820;2022-08-21T10:59:12;4.13;;;2.50;;
11191;SDS011;5652;48.406;10.820;2022-08-21T11:01:46;4.80;;;2.60;;
11191;SDS011;5652;48.406;10.820;2022-08-21T11:04:16;3.22;;;2.58;;
11191;SDS011;5652;48.406;10.820;2022-08-21T11:06:46;5.30;;;2.60;;
11191;SDS011;5652;48.406;10.820;2022-08-21T11:09:20;3.45;;;2.60;;
11191;SDS011;5652;48.406;10.820;2022-08-21T11:11:50;4.72;;;2.65;;
11191;SDS011;5652;48.406;10.820;2022-08-21T11:14:21;3.15;;;2.10;;
11191;SDS011;5652;48.406;10.820;2022-08-21T11:16:56;5.05;;;2.50;;
11191;SDS011;5652;48.406;10.820;2022-08-21T11:19:25;3.60;;;2.40;;
11191;SDS011;5652;48.406;10.820;2022-08-21T11:21:56;6.60;;;2.40;;
11191;SDS011;5652;48.406;10.820;2022-08-21T11:24:29;4.15;;;2.42;;
11191;SDS011;5652;48.406;10.820;2022-08-21T11:26:59;4.93;;;2.40;;
11191;SDS011;5652;48.406;10.820;2022-08-21T11:29:29;5.03;;;2.20;;
11191;SDS011;5652;48.406;10.820;2022-08-21T11:32:04;4.85;;;2.30;;
11191;SDS011;5652;48.406;10.820;2022-08-21T11:34:39;4.22;;;2.30;;
11191;SDS011;5652;48.406;10.820;2022-08-21T11:37:12;3.53;;;2.30;;
11191;SDS011;5652;48.406;10.820;2022-08-21T11:39:44;3.83;;;2.30;;
11191;SDS011;5652;48.406;10.820;2022-08-21T11:42:20;5.13;;;2.40;;
11191;SDS011;5652;48.406;10.820;2022-08-21T11:44:52;3.85;;;2.20;;
11191;SDS011;5652;48.406;10.820;2022-08-21T11:47:26;2.92;;;2.17;;
11191;SDS011;5652;48.406;10.820;2022-08-21T11:49:58;3.28;;;2.35;;
11191;SDS011;5652;48.406;10.820;2022-08-21T11:52:29;3.58;;;2.30;;
11191;SDS011;5652;48.406;10.820;2022-08-21T11:54:59;4.10;;;2.30;;
11191;SDS011;5652;48.406;10.820;2022-08-21T11:57:29;3.90;;;2.30;;
11191;SDS011;5652;48.406;10.820;2022-08-21T11:59:58;3.50;;;2.10;;
11191;SDS011;5652;48.406;10.820;2022-08-21T12:02:30;3.05;;;2.30;;
11191;SDS011;5652;48.406;10.820;2022-08-21T12:05:00;4.32;;;2.10;;
11191;SDS011;5652;48.406;10.820;2022-08-21T12:07:30;4.05;;;2.17;;
11191;SDS011;5652;48.406;10.820;2022-08-21T12:09:58;3.42;;;2.30;;
11191;SDS011;5652;48.406;10.820;2022-08-21T12:12:26;3.28;;;2.10;;
11191;SDS011;5652;48.406;10.820;2022-08-21T12:15:04;4.28;;;2.40;;
11191;SDS011;5652;48.406;10.820;2022-08-21T12:17:36;4.35;;;2.15;;
11191;SDS011;5652;48.406;10.820;2022-08-21T12:20:15;3.95;;;2.00;;
11191;SDS011;5652;48.406;10.820;2022-08-21T12:22:47;2.83;;;2.00;;
11191;SDS011;5652;48.406;10.820;2022-08-21T12:25:18;3.17;;;2.20;;
11191;SDS011;5652;48.406;10.820;2022-08-21T12:27:49;5.28;;;2.10;;
11191;SDS011;5652;48.406;10.820;2022-08-21T12:30:22;3.10;;;2.30;;
11191;SDS011;5652;48.406;10.820;2022-08-21T12:32:56;3.28;;;2.13;;
11191;SDS011;5652;48.406;10.820;2022-08-21T12:35:25;2.97;;;2.08;;
11191;SDS011;5652;48.406;10.820;2022-08-21T12:37:56;6.47;;;2.40;;
11191;SDS011;5652;48.406;10.820;2022-08-21T12:40:25;3.67;;;2.35;;
11191;SDS011;5652;48.406;10.820;2022-08-21T12:42:55;4.15;;;2.22;;
11191;SDS011;5652;48.406;10.820;2022-08-21T12:45:40;4.53;;;2.17;;
11191;SDS011;5652;48.406;10.820;2022-08-21T12:48:10;2.83;;;2.10;;
11191;SDS011;5652;48.406;10.820;2022-08-21T12:50:40;3.40;;;2.03;;
11191;SDS011;5652;48.406;10.820;2022-08-21T12:53:09;4.18;;;2.35;;
11191;SDS011;5652;48.406;10.820;2022-08-21T12:55:40;2.40;;;2.00;;
11191;SDS011;5652;48.406;10.820;2022-08-21T12:58:16;3.35;;;2.00;;
11191;SDS011;5652;48.406;10.820;2022-08-21T13:00:47;3.50;;;2.10;;
11191;SDS011;5652;48.406;10.820;2022-08-21T13:03:16;3.55;;;2.17;;
11191;SDS011;5652;48.406;10.820;2022-08-21T13:05:44;5.22;;;2.30;;
11191;SDS011;5652;48.406;10.820;2022-08-21T13:08:11;4.40;;;2.30;;
11191;SDS011;5652;48.406;10.820;2022-08-21T13:10:39;4.57;;;2.20;;
11191;SDS011;5652;48.406;10.820;2022-08-21T13:13:08;2.95;;;2.25;;
11191;SDS011;5652;48.406;10.820;2022-08-21T13:15:37;3.17;;;1.95;;
11191;SDS011;5652;48.406;10.820;2022-08-21T13:18:05;3.92;;;2.47;;
11191;SDS011;5652;48.406;10.820;2022-08-21T13:20:34;3.33;;;2.22;;
11191;SDS011;5652;48.406;10.820;2022-08-21T13:23:03;3.42;;;1.95;;
11191;SDS011;5652;48.406;10.820;2022-08-21T13:25:34;3.88;;;2.20;;
11191;SDS011;5652;48.406;10.820;2022-08-21T13:28:04;4.88;;;2.42;;
11191;SDS011;5652;48.406;10.820;2022-08-21T13:30:32;3.50;;;2.30;;
11191;SDS011;5652;48.406;10.820;2022-08-21T13:33:00;3.13;;;2.38;;
11191;SDS011;5652;48.406;10.820;2022-08-21T13:35:33;2.88;;;2.08;;
11191;SDS011;5652;48.406;10.820;2022-08-21T13:38:03;3.20;;;2.20;;
11191;SDS011;5652;48.406;10.820;2022-08-21T13:40:39;3.28;;;2.10;;
11191;SDS011;5652;48.406;10.820;2022-08-21T13:43:10;2.65;;;2.20;;
11191;SDS011;5652;48.406;10.820;2022-08-21T13:45:38;3.10;;;2.00;;
11191;SDS011;5652;48.406;10.820;2022-08-21T13:48:05;3.60;;;2.10;;
11191;SDS011;5652;48.406;10.820;2022-08-21T13:50:33;3.53;;;2.30;;
11191;SDS011;5652;48.406;10.820;2022-08-21T13:53:03;3.40;;;2.00;;
11191;SDS011;5652;48.406;10.820;2022-08-21T13:55:36;3.88;;;2.20;;
11191;SDS011;5652;48.406;10.820;2022-08-21T13:58:04;2.75;;;2.08;;
11191;SDS011;5652;48.406;10.820;2022-08-21T14:00:32;2.65;;;2.10;;
11191;SDS011;5652;48.406;10.820;2022-08-21T14:03:04;3.43;;;2.00;;
11191;SDS011;5652;48.406;10.820;2022-08-21T14:05:34;3.50;;;2.10;;
11191;SDS011;5652;48.406;10.820;2022-08-21T14:08:07;3.25;;;2.20;;
11191;SDS011;5652;48.406;10.820;2022-08-21T14:10:41;3.17;;;2.17;;
11191;SDS011;5652;48.406;10.820;2022-08-21T14:13:15;3.80;;;2.20;;
11191;SDS011;5652;48.406;10.820;2022-08-21T14:15:54;3.13;;;2.20;;
11191;SDS011;5652;48.406;10.820;2022-08-21T14:18:21;2.55;;;2.20;;
11191;SDS011;5652;48.406;10.820;2022-08-21T14:20:50;3.70;;;2.17;;
11191;SDS011;5652;48.406;10.820;2022-08-21T14:23:23;4.45;;;2.60;;
11191;SDS011;5652;48.406;10.820;2022-08-21T14:25:52;3.08;;;2.20;;
11191;SDS011;5652;48.406;10.820;2022-08-21T14:28:22;3.80;;;2.45;;
11191;SDS011;5652;48.406;10.820;2022-08-21T14:30:50;4.40;;;2.40;;
11191;SDS011;5652;48.406;10.820;2022-08-21T14:33:18;3.40;;;2.20;;
11191;SDS011;5652;48.406;10.820;2022-08-21T14:35:48;5.60;;;2.30;;
11191;SDS011;5652;48.406;10.820;2022-08-21T14:38:16;3.08;;;2.42;;
11191;SDS011;5652;48.406;10.820;2022-08-21T14:40:44;3.60;;;2.23;;
11191;SDS011;5652;48.406;10.820;2022-08-21T14:43:15;4.03;;;2.10;;
11191;SDS011;5652;48.406;10.820;2022-08-21T14:45:44;3.33;;;2.20;;
11191;SDS011;5652;48.406;10.820;2022-08-21T14:48:11;3.60;;;2.30;;
11191;SDS011;5652;48.406;10.820;2022-08-21T14:50:39;4.38;;;2.22;;
11191;SDS011;5652;48.406;10.820;2022-08-21T14:53:06;3.40;;;2.00;;
11191;SDS011;5652;48.406;10.820;2022-08-21T14:55:34;4.40;;;2.05;;
11191;SDS011;5652;48.406;10.820;2022-08-21T14:58:23;3.70;;;2.20;;
11191;SDS011;5652;48.406;10.820;2022-08-21T15:00:51;4.75;;;2.42;;
11191;SDS011;5652;48.406;10.820;2022-08-21T15:03:19;2.67;;;2.17;;